Asyut, Egypt
Current Conditions -  °F | °C
As of 4:00 PM on Friday 28 Nov 2014 (Local Time) from HESG Reporting Station
Clear Clear  
Wind Chill: 73°   Ceiling: Unl
Heat Index: 73°   Visibility: 6mi
Dew Point: 46°   Wind: 8mph
Humidity: 38%   Direction: 260°W
Pressure: 30.09"   Gusts: NA
Location:  27.19°N, 31.18°E
Report Text: HESG 281400Z 26007KT CAVOK 23/08 Q1019 NOSIG
Loading
Personal Weather Stations






























Interactive Weather Map New forecast layout! Learn more

10-Day Weather Forecast

Advertisements
Track Severe Weather on mobile